sensor_id;sensor_type;location;lat;lon;timestamp;P1;durP1;ratioP1;P2;durP2;ratioP2
65871;SDS011;52653;50.080;21.992;2023-05-13T00:02:21;20.20;;;14.40;;
65871;SDS011;52653;50.080;21.992;2023-05-13T00:05:09;18.90;;;14.40;;
65871;SDS011;52653;50.080;21.992;2023-05-13T00:08:03;20.70;;;14.00;;
65871;SDS011;52653;50.080;21.992;2023-05-13T00:10:56;21.60;;;14.80;;
65871;SDS011;52653;50.080;21.992;2023-05-13T00:13:40;19.80;;;14.00;;
65871;SDS011;52653;50.080;21.992;2023-05-13T00:16:33;20.00;;;14.30;;
65871;SDS011;52653;50.080;21.992;2023-05-13T00:19:25;20.30;;;13.60;;
65871;SDS011;52653;50.080;21.992;2023-05-13T00:22:11;20.60;;;14.60;;
65871;SDS011;52653;50.080;21.992;2023-05-13T00:24:57;17.80;;;14.40;;
65871;SDS011;52653;50.080;21.992;2023-05-13T00:27:31;21.80;;;15.20;;
65871;SDS011;52653;50.080;21.992;2023-05-13T00:30:13;17.60;;;14.20;;
65871;SDS011;52653;50.080;21.992;2023-05-13T00:33:06;19.10;;;14.70;;
65871;SDS011;52653;50.080;21.992;2023-05-13T00:36:01;18.70;;;14.60;;
65871;SDS011;52653;50.080;21.992;2023-05-13T00:38:48;19.40;;;14.80;;
65871;SDS011;52653;50.080;21.992;2023-05-13T00:41:31;19.50;;;14.00;;
65871;SDS011;52653;50.080;21.992;2023-05-13T00:44:17;19.80;;;14.90;;
65871;SDS011;52653;50.080;21.992;2023-05-13T00:47:10;21.50;;;14.40;;
65871;SDS011;52653;50.080;21.992;2023-05-13T00:50:04;21.00;;;14.80;;
65871;SDS011;52653;50.080;21.992;2023-05-13T00:52:49;20.60;;;14.60;;
65871;SDS011;52653;50.080;21.992;2023-05-13T00:55:41;21.20;;;14.60;;
65871;SDS011;52653;50.080;21.992;2023-05-13T00:58:35;19.80;;;15.40;;
65871;SDS011;52653;50.080;21.992;2023-05-13T01:01:29;20.30;;;14.90;;
65871;SDS011;52653;50.080;21.992;2023-05-13T01:04:29;23.50;;;15.70;;
65871;SDS011;52653;50.080;21.992;2023-05-13T01:07:11;22.20;;;16.00;;
65871;SDS011;52653;50.080;21.992;2023-05-13T01:10:14;21.60;;;14.90;;
65871;SDS011;52653;50.080;21.992;2023-05-13T01:12:57;19.50;;;15.10;;
65871;SDS011;52653;50.080;21.992;2023-05-13T01:15:55;21.20;;;16.40;;
65871;SDS011;52653;50.080;21.992;2023-05-13T01:18:55;22.00;;;15.30;;
65871;SDS011;52653;50.080;21.992;2023-05-13T01:21:53;20.90;;;15.10;;
65871;SDS011;52653;50.080;21.992;2023-05-13T01:24:46;18.60;;;14.70;;
65871;SDS011;52653;50.080;21.992;2023-05-13T01:27:41;20.10;;;15.40;;
65871;SDS011;52653;50.080;21.992;2023-05-13T01:30:28;23.30;;;15.70;;
65871;SDS011;52653;50.080;21.992;2023-05-13T01:33:11;19.60;;;14.60;;
65871;SDS011;52653;50.080;21.992;2023-05-13T01:36:06;21.30;;;15.40;;
65871;SDS011;52653;50.080;21.992;2023-05-13T01:39:00;25.20;;;16.40;;
65871;SDS011;52653;50.080;21.992;2023-05-13T01:41:54;21.30;;;15.80;;
65871;SDS011;52653;50.080;21.992;2023-05-13T01:44:47;19.70;;;15.20;;
65871;SDS011;52653;50.080;21.992;2023-05-13T01:47:24;22.80;;;16.80;;
65871;SDS011;52653;50.080;21.992;2023-05-13T01:50:03;21.80;;;16.00;;
65871;SDS011;52653;50.080;21.992;2023-05-13T01:52:47;19.60;;;16.20;;
65871;SDS011;52653;50.080;21.992;2023-05-13T01:55:40;22.20;;;16.50;;
65871;SDS011;52653;50.080;21.992;2023-05-13T01:58:16;25.30;;;17.60;;
65871;SDS011;52653;50.080;21.992;2023-05-13T02:00:51;24.90;;;17.60;;
65871;SDS011;52653;50.080;21.992;2023-05-13T02:03:23;24.40;;;16.60;;
65871;SDS011;52653;50.080;21.992;2023-05-13T02:06:11;20.70;;;16.60;;
65871;SDS011;52653;50.080;21.992;2023-05-13T02:08:47;26.60;;;17.80;;
65871;SDS011;52653;50.080;21.992;2023-05-13T02:11:33;24.00;;;17.00;;
65871;SDS011;52653;50.080;21.992;2023-05-13T02:14:26;24.00;;;17.30;;
65871;SDS011;52653;50.080;21.992;2023-05-13T02:17:19;21.50;;;16.30;;
65871;SDS011;52653;50.080;21.992;2023-05-13T02:20:13;25.50;;;17.20;;
65871;SDS011;52653;50.080;21.992;2023-05-13T02:22:56;26.30;;;18.50;;
65871;SDS011;52653;50.080;21.992;2023-05-13T02:25:36;24.40;;;18.10;;
65871;SDS011;52653;50.080;21.992;2023-05-13T02:28:14;26.60;;;17.80;;
65871;SDS011;52653;50.080;21.992;2023-05-13T02:31:08;26.20;;;18.10;;
65871;SDS011;52653;50.080;21.992;2023-05-13T02:33:56;26.30;;;18.70;;
65871;SDS011;52653;50.080;21.992;2023-05-13T02:36:41;22.70;;;17.20;;
65871;SDS011;52653;50.080;21.992;2023-05-13T02:39:27;26.80;;;18.80;;
65871;SDS011;52653;50.080;21.992;2023-05-13T02:42:04;30.40;;;19.00;;
65871;SDS011;52653;50.080;21.992;2023-05-13T02:44:40;27.60;;;17.80;;
65871;SDS011;52653;50.080;21.992;2023-05-13T02:47:18;27.50;;;18.50;;
65871;SDS011;52653;50.080;21.992;2023-05-13T02:50:13;27.80;;;18.80;;
65871;SDS011;52653;50.080;21.992;2023-05-13T02:52:45;26.30;;;17.90;;
65871;SDS011;52653;50.080;21.992;2023-05-13T02:55:21;27.30;;;18.20;;
65871;SDS011;52653;50.080;21.992;2023-05-13T02:58:08;26.20;;;18.30;;
65871;SDS011;52653;50.080;21.992;2023-05-13T03:00:51;28.40;;;18.50;;
65871;SDS011;52653;50.080;21.992;2023-05-13T03:03:44;26.20;;;18.30;;
65871;SDS011;52653;50.080;21.992;2023-05-13T03:06:31;27.40;;;19.00;;
65871;SDS011;52653;50.080;21.992;2023-05-13T03:09:24;27.00;;;19.00;;
65871;SDS011;52653;50.080;21.992;2023-05-13T03:12:02;25.90;;;18.80;;
65871;SDS011;52653;50.080;21.992;2023-05-13T03:14:55;29.20;;;18.50;;
65871;SDS011;52653;50.080;21.992;2023-05-13T03:17:48;25.10;;;17.60;;
65871;SDS011;52653;50.080;21.992;2023-05-13T03:20:23;28.80;;;18.00;;
65871;SDS011;52653;50.080;21.992;2023-05-13T03:23:17;27.10;;;18.50;;
65871;SDS011;52653;50.080;21.992;2023-05-13T03:26:10;26.80;;;16.60;;
65871;SDS011;52653;50.080;21.992;2023-05-13T03:29:03;27.30;;;16.70;;
65871;SDS011;52653;50.080;21.992;2023-05-13T03:31:57;22.40;;;17.20;;
65871;SDS011;52653;50.080;21.992;2023-05-13T03:34:34;27.60;;;17.50;;
65871;SDS011;52653;50.080;21.992;2023-05-13T03:37:27;24.50;;;15.50;;
65871;SDS011;52653;50.080;21.992;2023-05-13T03:40:14;24.90;;;16.90;;
65871;SDS011;52653;50.080;21.992;2023-05-13T03:43:07;23.70;;;17.50;;
65871;SDS011;52653;50.080;21.992;2023-05-13T03:45:59;27.40;;;17.80;;
65871;SDS011;52653;50.080;21.992;2023-05-13T03:48:43;21.30;;;15.60;;
65871;SDS011;52653;50.080;21.992;2023-05-13T03:51:16;23.90;;;16.30;;
65871;SDS011;52653;50.080;21.992;2023-05-13T03:54:09;18.80;;;14.70;;
65871;SDS011;52653;50.080;21.992;2023-05-13T03:57:02;20.10;;;13.50;;
65871;SDS011;52653;50.080;21.992;2023-05-13T03:59:55;19.90;;;13.50;;
65871;SDS011;52653;50.080;21.992;2023-05-13T04:02:31;19.40;;;14.40;;
65871;SDS011;52653;50.080;21.992;2023-05-13T04:05:15;18.00;;;14.40;;
65871;SDS011;52653;50.080;21.992;2023-05-13T04:07:58;19.20;;;14.10;;
65871;SDS011;52653;50.080;21.992;2023-05-13T04:10:30;21.30;;;13.20;;
65871;SDS011;52653;50.080;21.992;2023-05-13T04:13:23;19.00;;;13.20;;
65871;SDS011;52653;50.080;21.992;2023-05-13T04:16:07;16.60;;;12.90;;
65871;SDS011;52653;50.080;21.992;2023-05-13T04:18:43;17.60;;;13.00;;
65871;SDS011;52653;50.080;21.992;2023-05-13T04:21:19;15.60;;;11.30;;
65871;SDS011;52653;50.080;21.992;2023-05-13T04:24:01;18.20;;;12.60;;
65871;SDS011;52653;50.080;21.992;2023-05-13T04:26:55;16.50;;;12.60;;
65871;SDS011;52653;50.080;21.992;2023-05-13T04:29:40;17.70;;;13.50;;
65871;SDS011;52653;50.080;21.992;2023-05-13T04:32:34;17.00;;;12.40;;
65871;SDS011;52653;50.080;21.992;2023-05-13T04:35:27;17.40;;;12.20;;
65871;SDS011;52653;50.080;21.992;2023-05-13T04:42:23;16.80;;;11.10;;
65871;SDS011;52653;50.080;21.992;2023-05-13T04:45:07;16.50;;;11.00;;
65871;SDS011;52653;50.080;21.992;2023-05-13T04:48:00;13.50;;;10.20;;
65871;SDS011;52653;50.080;21.992;2023-05-13T04:50:53;16.50;;;10.50;;
65871;SDS011;52653;50.080;21.992;2023-05-13T04:53:41;14.30;;;9.90;;
65871;SDS011;52653;50.080;21.992;2023-05-13T04:56:35;14.30;;;9.70;;
65871;SDS011;52653;50.080;21.992;2023-05-13T04:59:27;13.60;;;9.60;;
65871;SDS011;52653;50.080;21.992;2023-05-13T05:02:02;14.90;;;9.00;;
65871;SDS011;52653;50.080;21.992;2023-05-13T05:04:41;14.40;;;9.50;;
65871;SDS011;52653;50.080;21.992;2023-05-13T05:07:34;14.80;;;9.90;;
65871;SDS011;52653;50.080;21.992;2023-05-13T05:10:29;15.40;;;9.10;;
65871;SDS011;52653;50.080;21.992;2023-05-13T05:13:21;15.70;;;8.90;;
65871;SDS011;52653;50.080;21.992;2023-05-13T05:16:14;11.20;;;9.10;;
65871;SDS011;52653;50.080;21.992;2023-05-13T05:19:10;14.20;;;10.90;;
65871;SDS011;52653;50.080;21.992;2023-05-13T05:22:03;16.90;;;10.00;;
65871;SDS011;52653;50.080;21.992;2023-05-13T05:24:47;14.00;;;10.00;;
65871;SDS011;52653;50.080;21.992;2023-05-13T05:27:32;17.30;;;11.60;;
65871;SDS011;52653;50.080;21.992;2023-05-13T05:30:25;18.00;;;11.30;;
65871;SDS011;52653;50.080;21.992;2023-05-13T05:33:18;17.30;;;11.80;;
65871;SDS011;52653;50.080;21.992;2023-05-13T05:36:11;15.20;;;11.00;;
65871;SDS011;52653;50.080;21.992;2023-05-13T05:38:56;15.20;;;11.00;;
65871;SDS011;52653;50.080;21.992;2023-05-13T05:41:52;15.40;;;11.00;;
65871;SDS011;52653;50.080;21.992;2023-05-13T05:44:45;14.80;;;10.50;;
65871;SDS011;52653;50.080;21.992;2023-05-13T05:47:29;14.80;;;10.10;;
65871;SDS011;52653;50.080;21.992;2023-05-13T05:50:22;16.30;;;10.40;;
65871;SDS011;52653;50.080;21.992;2023-05-13T05:53:06;15.20;;;10.20;;
65871;SDS011;52653;50.080;21.992;2023-05-13T05:55:59;13.70;;;9.40;;
65871;SDS011;52653;50.080;21.992;2023-05-13T05:58:52;14.80;;;10.00;;
65871;SDS011;52653;50.080;21.992;2023-05-13T06:01:45;13.60;;;9.30;;
65871;SDS011;52653;50.080;21.992;2023-05-13T06:04:28;14.10;;;9.80;;
65871;SDS011;52653;50.080;21.992;2023-05-13T06:07:22;14.50;;;10.00;;
65871;SDS011;52653;50.080;21.992;2023-05-13T06:10:14;13.60;;;10.30;;
65871;SDS011;52653;50.080;21.992;2023-05-13T06:13:08;14.80;;;10.00;;
65871;SDS011;52653;50.080;21.992;2023-05-13T06:15:40;14.60;;;8.50;;
65871;SDS011;52653;50.080;21.992;2023-05-13T06:18:34;13.00;;;9.00;;
65871;SDS011;52653;50.080;21.992;2023-05-13T06:21:06;13.10;;;8.60;;
65871;SDS011;52653;50.080;21.992;2023-05-13T06:23:40;11.60;;;7.30;;
65871;SDS011;52653;50.080;21.992;2023-05-13T06:26:15;11.70;;;7.30;;
65871;SDS011;52653;50.080;21.992;2023-05-13T06:29:08;10.20;;;7.40;;
65871;SDS011;52653;50.080;21.992;2023-05-13T06:31:44;10.40;;;7.40;;
65871;SDS011;52653;50.080;21.992;2023-05-13T06:34:17;10.40;;;6.90;;
65871;SDS011;52653;50.080;21.992;2023-05-13T06:36:50;9.70;;;5.90;;
65871;SDS011;52653;50.080;21.992;2023-05-13T06:39:24;8.30;;;5.60;;
65871;SDS011;52653;50.080;21.992;2023-05-13T06:41:57;8.30;;;4.70;;
65871;SDS011;52653;50.080;21.992;2023-05-13T06:44:33;7.40;;;5.20;;
65871;SDS011;52653;50.080;21.992;2023-05-13T06:47:07;7.90;;;5.10;;
65871;SDS011;52653;50.080;21.992;2023-05-13T06:49:46;8.30;;;5.00;;
65871;SDS011;52653;50.080;21.992;2023-05-13T06:52:19;7.10;;;4.70;;
65871;SDS011;52653;50.080;21.992;2023-05-13T06:54:53;8.40;;;4.30;;
65871;SDS011;52653;50.080;21.992;2023-05-13T06:57:26;8.90;;;4.20;;
65871;SDS011;52653;50.080;21.992;2023-05-13T07:00:11;8.10;;;4.00;;
65871;SDS011;52653;50.080;21.992;2023-05-13T07:02:47;5.80;;;3.90;;
65871;SDS011;52653;50.080;21.992;2023-05-13T07:05:23;6.20;;;4.00;;
65871;SDS011;52653;50.080;21.992;2023-05-13T07:08:10;8.90;;;4.10;;
65871;SDS011;52653;50.080;21.992;2023-05-13T07:10:48;8.80;;;4.60;;
65871;SDS011;52653;50.080;21.992;2023-05-13T07:13:21;6.90;;;3.80;;
65871;SDS011;52653;50.080;21.992;2023-05-13T07:15:56;6.70;;;3.90;;
65871;SDS011;52653;50.080;21.992;2023-05-13T07:18:29;7.60;;;3.30;;
65871;SDS011;52653;50.080;21.992;2023-05-13T07:21:02;8.80;;;3.60;;
65871;SDS011;52653;50.080;21.992;2023-05-13T07:23:39;7.30;;;3.30;;
65871;SDS011;52653;50.080;21.992;2023-05-13T07:26:13;5.90;;;3.60;;
65871;SDS011;52653;50.080;21.992;2023-05-13T07:28:46;9.10;;;3.60;;
65871;SDS011;52653;50.080;21.992;2023-05-13T07:31:18;7.00;;;3.10;;
65871;SDS011;52653;50.080;21.992;2023-05-13T07:34:11;5.50;;;3.00;;
65871;SDS011;52653;50.080;21.992;2023-05-13T07:37:05;7.10;;;3.00;;
65871;SDS011;52653;50.080;21.992;2023-05-13T07:39:58;5.30;;;3.20;;
65871;SDS011;52653;50.080;21.992;2023-05-13T07:42:41;4.70;;;3.10;;
65871;SDS011;52653;50.080;21.992;2023-05-13T07:45:35;6.70;;;3.40;;
65871;SDS011;52653;50.080;21.992;2023-05-13T07:48:11;6.20;;;3.10;;
65871;SDS011;52653;50.080;21.992;2023-05-13T07:50:51;7.40;;;3.70;;
65871;SDS011;52653;50.080;21.992;2023-05-13T07:53:35;6.60;;;2.70;;
65871;SDS011;52653;50.080;21.992;2023-05-13T07:56:10;8.30;;;3.00;;
65871;SDS011;52653;50.080;21.992;2023-05-13T07:58:43;5.50;;;2.80;;
65871;SDS011;52653;50.080;21.992;2023-05-13T08:01:18;5.30;;;2.60;;
65871;SDS011;52653;50.080;21.992;2023-05-13T08:03:51;5.20;;;2.50;;
65871;SDS011;52653;50.080;21.992;2023-05-13T08:06:25;6.30;;;2.80;;
65871;SDS011;52653;50.080;21.992;2023-05-13T08:09:17;5.60;;;3.10;;
65871;SDS011;52653;50.080;21.992;2023-05-13T08:12:01;5.70;;;2.60;;
65871;SDS011;52653;50.080;21.992;2023-05-13T08:14:55;5.40;;;2.60;;
65871;SDS011;52653;50.080;21.992;2023-05-13T08:17:40;6.50;;;2.70;;
65871;SDS011;52653;50.080;21.992;2023-05-13T08:20:16;4.90;;;3.10;;
65871;SDS011;52653;50.080;21.992;2023-05-13T08:23:08;5.40;;;2.70;;
65871;SDS011;52653;50.080;21.992;2023-05-13T08:25:46;6.30;;;2.70;;
65871;SDS011;52653;50.080;21.992;2023-05-13T08:28:20;5.60;;;3.10;;
65871;SDS011;52653;50.080;21.992;2023-05-13T08:31:14;5.90;;;2.90;;
65871;SDS011;52653;50.080;21.992;2023-05-13T08:34:05;5.70;;;2.90;;
65871;SDS011;52653;50.080;21.992;2023-05-13T08:36:47;5.40;;;2.50;;
65871;SDS011;52653;50.080;21.992;2023-05-13T08:39:40;5.90;;;2.60;;
65871;SDS011;52653;50.080;21.992;2023-05-13T08:42:27;4.30;;;2.70;;
65871;SDS011;52653;50.080;21.992;2023-05-13T08:45:18;6.20;;;2.50;;
65871;SDS011;52653;50.080;21.992;2023-05-13T08:48:03;5.40;;;2.50;;
65871;SDS011;52653;50.080;21.992;2023-05-13T08:50:57;5.00;;;2.00;;
65871;SDS011;52653;50.080;21.992;2023-05-13T08:53:30;5.60;;;2.40;;
65871;SDS011;52653;50.080;21.992;2023-05-13T08:56:24;6.10;;;2.30;;
65871;SDS011;52653;50.080;21.992;2023-05-13T08:59:18;7.70;;;2.40;;
65871;SDS011;52653;50.080;21.992;2023-05-13T09:02:11;4.10;;;2.00;;
65871;SDS011;52653;50.080;21.992;2023-05-13T09:05:01;6.80;;;2.20;;
65871;SDS011;52653;50.080;21.992;2023-05-13T09:07:49;4.60;;;2.30;;
65871;SDS011;52653;50.080;21.992;2023-05-13T09:10:44;4.40;;;2.00;;
65871;SDS011;52653;50.080;21.992;2023-05-13T09:13:37;5.00;;;2.30;;
65871;SDS011;52653;50.080;21.992;2023-05-13T09:16:34;5.80;;;2.40;;
65871;SDS011;52653;50.080;21.992;2023-05-13T09:19:28;5.90;;;2.20;;
65871;SDS011;52653;50.080;21.992;2023-05-13T09:22:21;5.60;;;2.20;;
65871;SDS011;52653;50.080;21.992;2023-05-13T09:24:54;6.30;;;2.30;;
65871;SDS011;52653;50.080;21.992;2023-05-13T09:27:39;5.90;;;2.50;;
65871;SDS011;52653;50.080;21.992;2023-05-13T09:30:23;5.50;;;2.30;;
65871;SDS011;52653;50.080;21.992;2023-05-13T09:33:08;6.50;;;2.50;;
65871;SDS011;52653;50.080;21.992;2023-05-13T09:35:47;5.40;;;2.30;;
65871;SDS011;52653;50.080;21.992;2023-05-13T09:38:23;4.90;;;2.70;;
65871;SDS011;52653;50.080;21.992;2023-05-13T09:41:01;4.80;;;2.20;;
65871;SDS011;52653;50.080;21.992;2023-05-13T09:43:36;5.10;;;2.10;;
65871;SDS011;52653;50.080;21.992;2023-05-13T09:46:10;5.40;;;2.40;;
65871;SDS011;52653;50.080;21.992;2023-05-13T09:48:55;5.70;;;2.20;;
65871;SDS011;52653;50.080;21.992;2023-05-13T09:51:35;5.50;;;2.10;;
65871;SDS011;52653;50.080;21.992;2023-05-13T09:54:34;8.00;;;2.60;;
65871;SDS011;52653;50.080;21.992;2023-05-13T09:57:10;6.20;;;2.40;;
65871;SDS011;52653;50.080;21.992;2023-05-13T09:59:44;8.30;;;2.70;;
65871;SDS011;52653;50.080;21.992;2023-05-13T10:02:28;7.80;;;2.60;;
65871;SDS011;52653;50.080;21.992;2023-05-13T10:05:01;4.80;;;2.50;;
65871;SDS011;52653;50.080;21.992;2023-05-13T10:07:38;7.00;;;3.30;;
65871;SDS011;52653;50.080;21.992;2023-05-13T10:10:14;4.10;;;2.40;;
65871;SDS011;52653;50.080;21.992;2023-05-13T10:12:47;5.80;;;2.40;;
65871;SDS011;52653;50.080;21.992;2023-05-13T10:15:21;3.60;;;2.20;;
65871;SDS011;52653;50.080;21.992;2023-05-13T10:17:54;5.50;;;2.30;;
65871;SDS011;52653;50.080;21.992;2023-05-13T10:20:30;4.80;;;2.30;;
65871;SDS011;52653;50.080;21.992;2023-05-13T10:23:03;6.20;;;2.50;;
65871;SDS011;52653;50.080;21.992;2023-05-13T10:25:37;4.70;;;2.50;;
65871;SDS011;52653;50.080;21.992;2023-05-13T10:28:13;6.50;;;2.50;;
65871;SDS011;52653;50.080;21.992;2023-05-13T10:30:49;3.30;;;2.30;;
65871;SDS011;52653;50.080;21.992;2023-05-13T10:33:22;8.30;;;3.10;;
65871;SDS011;52653;50.080;21.992;2023-05-13T10:35:59;4.90;;;2.50;;
65871;SDS011;52653;50.080;21.992;2023-05-13T10:38:56;4.70;;;2.40;;
65871;SDS011;52653;50.080;21.992;2023-05-13T10:41:55;6.50;;;2.50;;
65871;SDS011;52653;50.080;21.992;2023-05-13T10:45:06;5.00;;;2.50;;
65871;SDS011;52653;50.080;21.992;2023-05-13T10:47:39;5.20;;;2.70;;
65871;SDS011;52653;50.080;21.992;2023-05-13T10:50:23;5.00;;;2.90;;
65871;SDS011;52653;50.080;21.992;2023-05-13T10:52:57;5.80;;;2.60;;
65871;SDS011;52653;50.080;21.992;2023-05-13T10:55:44;5.30;;;2.40;;
65871;SDS011;52653;50.080;21.992;2023-05-13T10:58:25;6.40;;;2.70;;
65871;SDS011;52653;50.080;21.992;2023-05-13T11:04:00;5.90;;;2.60;;
65871;SDS011;52653;50.080;21.992;2023-05-13T11:06:54;5.40;;;2.50;;
65871;SDS011;52653;50.080;21.992;2023-05-13T11:09:57;7.00;;;2.60;;
65871;SDS011;52653;50.080;21.992;2023-05-13T11:12:30;7.00;;;2.40;;
65871;SDS011;52653;50.080;21.992;2023-05-13T11:15:03;7.80;;;3.00;;
65871;SDS011;52653;50.080;21.992;2023-05-13T11:17:56;5.50;;;2.80;;
65871;SDS011;52653;50.080;21.992;2023-05-13T11:20:29;5.20;;;2.70;;
65871;SDS011;52653;50.080;21.992;2023-05-13T11:23:22;6.30;;;2.70;;
65871;SDS011;52653;50.080;21.992;2023-05-13T11:26:17;6.20;;;2.70;;
65871;SDS011;52653;50.080;21.992;2023-05-13T11:29:04;5.30;;;2.80;;
65871;SDS011;52653;50.080;21.992;2023-05-13T11:31:57;6.30;;;2.50;;
65871;SDS011;52653;50.080;21.992;2023-05-13T11:34:34;4.80;;;2.90;;
65871;SDS011;52653;50.080;21.992;2023-05-13T11:37:17;6.00;;;2.80;;
65871;SDS011;52653;50.080;21.992;2023-05-13T11:40:12;7.60;;;2.40;;
65871;SDS011;52653;50.080;21.992;2023-05-13T11:42:52;6.70;;;2.50;;
65871;SDS011;52653;50.080;21.992;2023-05-13T11:45:28;4.80;;;2.40;;
65871;SDS011;52653;50.080;21.992;2023-05-13T11:50:50;7.70;;;2.90;;
65871;SDS011;52653;50.080;21.992;2023-05-13T11:53:34;5.40;;;2.40;;
65871;SDS011;52653;50.080;21.992;2023-05-13T11:56:29;3.90;;;2.30;;
65871;SDS011;52653;50.080;21.992;2023-05-13T11:59:14;4.40;;;2.20;;
65871;SDS011;52653;50.080;21.992;2023-05-13T12:02:07;5.10;;;2.40;;
65871;SDS011;52653;50.080;21.992;2023-05-13T12:05:01;5.90;;;2.50;;
65871;SDS011;52653;50.080;21.992;2023-05-13T12:07:35;6.10;;;2.30;;
65871;SDS011;52653;50.080;21.992;2023-05-13T12:10:29;4.80;;;2.30;;
65871;SDS011;52653;50.080;21.992;2023-05-13T12:13:12;6.00;;;2.30;;
65871;SDS011;52653;50.080;21.992;2023-05-13T12:16:05;8.80;;;2.90;;
65871;SDS011;52653;50.080;21.992;2023-05-13T12:18:38;6.60;;;2.90;;
65871;SDS011;52653;50.080;21.992;2023-05-13T12:21:21;4.60;;;2.80;;
65871;SDS011;52653;50.080;21.992;2023-05-13T12:24:19;6.00;;;2.70;;
65871;SDS011;52653;50.080;21.992;2023-05-13T12:27:12;6.60;;;2.80;;
65871;SDS011;52653;50.080;21.992;2023-05-13T12:30:11;4.80;;;2.40;;
65871;SDS011;52653;50.080;21.992;2023-05-13T12:32:58;5.70;;;2.70;;
65871;SDS011;52653;50.080;21.992;2023-05-13T12:35:53;5.20;;;2.80;;
65871;SDS011;52653;50.080;21.992;2023-05-13T12:39:09;5.10;;;2.70;;
65871;SDS011;52653;50.080;21.992;2023-05-13T12:42:14;5.00;;;2.40;;
65871;SDS011;52653;50.080;21.992;2023-05-13T12:44:48;8.10;;;2.50;;
65871;SDS011;52653;50.080;21.992;2023-05-13T12:47:49;6.40;;;2.80;;
65871;SDS011;52653;50.080;21.992;2023-05-13T12:50:42;4.50;;;2.40;;
65871;SDS011;52653;50.080;21.992;2023-05-13T12:53:27;5.40;;;2.80;;
65871;SDS011;52653;50.080;21.992;2023-05-13T12:56:21;6.10;;;2.50;;
65871;SDS011;52653;50.080;21.992;2023-05-13T12:59:02;5.50;;;2.70;;
65871;SDS011;52653;50.080;21.992;2023-05-13T13:01:38;5.20;;;2.40;;
65871;SDS011;52653;50.080;21.992;2023-05-13T13:04:14;3.50;;;2.40;;
65871;SDS011;52653;50.080;21.992;2023-05-13T13:07:07;7.90;;;2.30;;
65871;SDS011;52653;50.080;21.992;2023-05-13T13:10:03;5.70;;;2.60;;
65871;SDS011;52653;50.080;21.992;2023-05-13T13:12:59;4.80;;;2.50;;
65871;SDS011;52653;50.080;21.992;2023-05-13T13:15:52;5.80;;;2.90;;
65871;SDS011;52653;50.080;21.992;2023-05-13T13:18:45;8.10;;;2.90;;
65871;SDS011;52653;50.080;21.992;2023-05-13T13:21:43;7.60;;;2.90;;
65871;SDS011;52653;50.080;21.992;2023-05-13T13:24:36;7.30;;;3.30;;
65871;SDS011;52653;50.080;21.992;2023-05-13T13:27:28;4.50;;;3.00;;
65871;SDS011;52653;50.080;21.992;2023-05-13T13:30:22;5.80;;;3.40;;
65871;SDS011;52653;50.080;21.992;2023-05-13T13:33:15;5.50;;;3.00;;
65871;SDS011;52653;50.080;21.992;2023-05-13T13:35:51;5.90;;;3.10;;
65871;SDS011;52653;50.080;21.992;2023-05-13T13:41:30;5.00;;;2.70;;
65871;SDS011;52653;50.080;21.992;2023-05-13T13:44:23;7.10;;;2.70;;
65871;SDS011;52653;50.080;21.992;2023-05-13T13:47:17;6.20;;;3.10;;
65871;SDS011;52653;50.080;21.992;2023-05-13T13:50:13;7.20;;;2.90;;
65871;SDS011;52653;50.080;21.992;2023-05-13T13:53:05;5.30;;;2.80;;
65871;SDS011;52653;50.080;21.992;2023-05-13T13:56:01;6.40;;;3.20;;
65871;SDS011;52653;50.080;21.992;2023-05-13T13:58:54;6.40;;;3.10;;
65871;SDS011;52653;50.080;21.992;2023-05-13T14:01:26;6.40;;;3.10;;
65871;SDS011;52653;50.080;21.992;2023-05-13T14:04:10;4.90;;;3.00;;
65871;SDS011;52653;50.080;21.992;2023-05-13T14:06:46;7.90;;;4.10;;
65871;SDS011;52653;50.080;21.992;2023-05-13T14:09:40;6.90;;;3.40;;
65871;SDS011;52653;50.080;21.992;2023-05-13T14:12:33;7.60;;;3.70;;
65871;SDS011;52653;50.080;21.992;2023-05-13T14:15:12;7.70;;;3.60;;
65871;SDS011;52653;50.080;21.992;2023-05-13T14:17:57;5.10;;;2.80;;
65871;SDS011;52653;50.080;21.992;2023-05-13T14:20:43;6.20;;;3.30;;
65871;SDS011;52653;50.080;21.992;2023-05-13T14:23:29;5.00;;;3.20;;
65871;SDS011;52653;50.080;21.992;2023-05-13T14:26:02;6.70;;;3.30;;
65871;SDS011;52653;50.080;21.992;2023-05-13T14:28:56;6.10;;;2.90;;
65871;SDS011;52653;50.080;21.992;2023-05-13T14:31:49;5.30;;;3.00;;
65871;SDS011;52653;50.080;21.992;2023-05-13T14:34:33;5.80;;;3.00;;
65871;SDS011;52653;50.080;21.992;2023-05-13T14:37:26;4.30;;;2.90;;
65871;SDS011;52653;50.080;21.992;2023-05-13T14:40:18;5.90;;;2.80;;
65871;SDS011;52653;50.080;21.992;2023-05-13T14:43:03;7.00;;;3.10;;
65871;SDS011;52653;50.080;21.992;2023-05-13T14:45:38;5.20;;;2.80;;
65871;SDS011;52653;50.080;21.992;2023-05-13T14:48:14;4.70;;;2.90;;
65871;SDS011;52653;50.080;21.992;2023-05-13T14:50:48;7.70;;;3.30;;
65871;SDS011;52653;50.080;21.992;2023-05-13T14:53:31;6.60;;;2.60;;
65871;SDS011;52653;50.080;21.992;2023-05-13T14:56:24;5.40;;;2.70;;
65871;SDS011;52653;50.080;21.992;2023-05-13T14:59:17;5.70;;;3.00;;
65871;SDS011;52653;50.080;21.992;2023-05-13T15:02:03;6.60;;;3.20;;
65871;SDS011;52653;50.080;21.992;2023-05-13T15:04:57;5.90;;;2.60;;
65871;SDS011;52653;50.080;21.992;2023-05-13T15:07:49;5.60;;;3.00;;
65871;SDS011;52653;50.080;21.992;2023-05-13T15:10:32;5.90;;;3.00;;
65871;SDS011;52653;50.080;21.992;2023-05-13T15:13:19;6.60;;;3.30;;
65871;SDS011;52653;50.080;21.992;2023-05-13T15:15:53;4.70;;;2.60;;
65871;SDS011;52653;50.080;21.992;2023-05-13T15:18:26;6.10;;;3.20;;
65871;SDS011;52653;50.080;21.992;2023-05-13T15:21:02;5.40;;;2.70;;
65871;SDS011;52653;50.080;21.992;2023-05-13T15:23:36;5.30;;;2.70;;
65871;SDS011;52653;50.080;21.992;2023-05-13T15:26:21;5.40;;;2.60;;
65871;SDS011;52653;50.080;21.992;2023-05-13T15:29:14;6.50;;;3.10;;
65871;SDS011;52653;50.080;21.992;2023-05-13T15:31:49;4.80;;;2.80;;
65871;SDS011;52653;50.080;21.992;2023-05-13T15:34:23;7.70;;;2.80;;
65871;SDS011;52653;50.080;21.992;2023-05-13T15:36:56;5.40;;;3.00;;
65871;SDS011;52653;50.080;21.992;2023-05-13T15:39:49;6.80;;;3.30;;
65871;SDS011;52653;50.080;21.992;2023-05-13T15:42:22;6.20;;;3.20;;
65871;SDS011;52653;50.080;21.992;2023-05-13T15:44:58;6.20;;;3.00;;
65871;SDS011;52653;50.080;21.992;2023-05-13T15:47:41;7.00;;;3.00;;
65871;SDS011;52653;50.080;21.992;2023-05-13T15:50:35;6.10;;;2.80;;
65871;SDS011;52653;50.080;21.992;2023-05-13T15:53:28;4.60;;;2.90;;
65871;SDS011;52653;50.080;21.992;2023-05-13T15:56:23;7.10;;;3.10;;
65871;SDS011;52653;50.080;21.992;2023-05-13T15:58:56;5.30;;;3.20;;
65871;SDS011;52653;50.080;21.992;2023-05-13T16:01:38;6.60;;;2.90;;
65871;SDS011;52653;50.080;21.992;2023-05-13T16:04:22;4.80;;;2.70;;
65871;SDS011;52653;50.080;21.992;2023-05-13T16:07:15;5.90;;;3.20;;
65871;SDS011;52653;50.080;21.992;2023-05-13T16:10:10;6.50;;;3.10;;
65871;SDS011;52653;50.080;21.992;2023-05-13T16:13:03;8.00;;;3.20;;
65871;SDS011;52653;50.080;21.992;2023-05-13T16:15:49;6.10;;;3.20;;
65871;SDS011;52653;50.080;21.992;2023-05-13T16:18:22;6.10;;;2.80;;
65871;SDS011;52653;50.080;21.992;2023-05-13T16:21:04;7.10;;;3.30;;
65871;SDS011;52653;50.080;21.992;2023-05-13T16:23:57;5.20;;;3.10;;
65871;SDS011;52653;50.080;21.992;2023-05-13T16:26:39;5.60;;;2.90;;